Time;durP1;ratioP1;P1;durP2;ratioP2;P2;SDS_P1;SDS_P2;PMS_P1;PMS_P2;Temp;Humidity;BMP_temperature;BMP_pressure;BME280_temperature;BME280_humidity;BME280_pressure;Samples;Min_cycle;Max_cycle;Signal;HPM_P1;HPM_P2
2022/01/06 00:00:32;;;;;;;;;;;22.60;51.50;;;;;;5040855;28;20019;-70
2022/01/06 00:02:57;;;;;;;;;;;22.60;51.60;;;;;;5040954;28;19912;-70
2022/01/06 00:05:23;;;;;;;;;;;22.50;51.50;;;;;;5044608;28;20440;-67
2022/01/06 00:07:49;;;;;;;;;;;22.50;51.50;;;;;;5042821;28;19923;-66
2022/01/06 00:10:15;;;;;;;;;;;22.50;51.50;;;;;;5042403;28;19916;-65
2022/01/06 00:13:08;;;;;;;;;;;22.50;51.60;;;;;;5044832;28;20023;-66
2022/01/06 00:15:45;;;;;;;;;;;22.50;51.60;;;;;;5040375;28;20015;-67
2022/01/06 00:23:17;;;;;;;;;;;22.50;51.60;;;;;;5040489;28;19916;-66
2022/01/06 00:23:47;;;;;;;;;;;22.40;51.70;;;;;;5034573;28;19924;-70
2022/01/06 00:26:12;;;;;;;;;;;22.40;51.70;;;;;;5034264;28;20664;-67
2022/01/06 00:28:38;;;;;;;;;;;22.40;51.70;;;;;;5040765;28;19913;-70
2022/01/06 00:31:03;;;;;;;;;;;22.30;51.70;;;;;;5042119;28;19916;-67
2022/01/06 00:33:30;;;;;;;;;;;22.30;51.60;;;;;;5039398;28;19978;-70
2022/01/06 00:35:56;;;;;;;;;;;22.30;51.60;;;;;;5045752;28;20004;-66
2022/01/06 00:38:24;;;;;;;;;;;22.30;51.60;;;;;;5041906;28;20381;-66
2022/01/06 00:40:49;;;;;;;;;;;22.20;51.60;;;;;;5038708;28;19956;-66
2022/01/06 00:43:15;;;;;;;;;;;22.30;51.60;;;;;;5045663;28;20345;-66
2022/01/06 00:45:40;;;;;;;;;;;22.20;51.60;;;;;;5045083;28;19954;-66
2022/01/06 00:48:09;;;;;;;;;;;22.20;51.60;;;;;;5041630;28;19909;-67
2022/01/06 00:50:34;;;;;;;;;;;22.10;51.50;;;;;;5045364;28;19908;-67
2022/01/06 00:53:03;;;;;;;;;;;22.10;51.50;;;;;;5042180;28;20050;-70
2022/01/06 00:55:30;;;;;;;;;;;22.10;51.50;;;;;;5043724;28;19913;-67
2022/01/06 00:57:56;;;;;;;;;;;22.10;51.50;;;;;;5043887;28;19935;-66
2022/01/06 01:00:23;;;;;;;;;;;22.10;51.50;;;;;;5041626;28;19909;-70
2022/01/06 01:02:48;;;;;;;;;;;22.10;51.50;;;;;;5040692;28;19912;-70
2022/01/06 01:05:14;;;;;;;;;;;22.00;51.50;;;;;;5045623;28;19966;-67
2022/01/06 01:07:39;;;;;;;;;;;22.00;51.50;;;;;;5043155;28;19948;-67
2022/01/06 01:10:05;;;;;;;;;;;22.00;51.50;;;;;;5040225;28;19946;-70
2022/01/06 01:12:31;;;;;;;;;;;22.00;51.60;;;;;;5041236;28;19945;-68
2022/01/06 01:15:03;;;;;;;;;;;22.00;51.60;;;;;;5039803;28;19939;-67
2022/01/06 01:17:29;;;;;;;;;;;21.90;51.50;;;;;;5038652;28;20004;-67
2022/01/06 01:19:54;;;;;;;;;;;21.90;51.50;;;;;;5045771;28;21249;-70
2022/01/06 01:22:20;;;;;;;;;;;21.90;51.50;;;;;;5045895;28;19912;-66
2022/01/06 01:24:46;;;;;;;;;;;21.90;51.60;;;;;;5048529;28;19978;-67
2022/01/06 01:27:11;;;;;;;;;;;21.90;51.60;;;;;;5048341;28;20012;-70
2022/01/06 01:29:45;;;;;;;;;;;21.80;51.50;;;;;;5046963;28;19924;-66
2022/01/06 01:32:10;;;;;;;;;;;21.80;51.60;;;;;;5046177;28;19940;-69
2022/01/06 01:34:38;;;;;;;;;;;21.80;51.60;;;;;;5042480;28;19912;-67
2022/01/06 01:37:03;;;;;;;;;;;21.80;51.60;;;;;;5047968;28;19916;-69
2022/01/06 01:39:29;;;;;;;;;;;21.70;51.60;;;;;;5048781;28;19935;-67
2022/01/06 01:41:54;;;;;;;;;;;21.70;51.70;;;;;;5044401;28;19956;-66
2022/01/06 01:44:21;;;;;;;;;;;21.70;51.70;;;;;;5048146;28;20285;-67
2022/01/06 01:46:58;;;;;;;;;;;21.70;51.70;;;;;;5047510;28;19909;-67
2022/01/06 01:51:49;;;;;;;;;;;21.60;51.70;;;;;;5040114;28;20321;-67
2022/01/06 01:54:15;;;;;;;;;;;21.60;51.70;;;;;;5047557;28;19956;-67
2022/01/06 01:56:41;;;;;;;;;;;21.60;51.80;;;;;;5047383;28;20320;-69
2022/01/06 01:59:06;;;;;;;;;;;21.50;51.70;;;;;;5045731;28;19912;-66
2022/01/06 02:01:32;;;;;;;;;;;21.50;51.80;;;;;;5047129;28;19921;-69
2022/01/06 02:03:57;;;;;;;;;;;21.60;51.90;;;;;;5046707;28;19911;-67
2022/01/06 02:06:23;;;;;;;;;;;21.50;51.90;;;;;;5047628;28;20332;-66
2022/01/06 02:08:51;;;;;;;;;;;21.50;52.00;;;;;;5038312;28;19916;-69
2022/01/06 02:11:16;;;;;;;;;;;21.50;51.90;;;;;;5044590;28;19905;-65
2022/01/06 02:13:45;;;;;;;;;;;21.40;51.80;;;;;;5048078;28;20007;-68
2022/01/06 02:16:11;;;;;;;;;;;21.50;52.00;;;;;;5044764;28;19905;-66
2022/01/06 02:18:36;;;;;;;;;;;21.50;52.00;;;;;;5047253;28;19909;-67
2022/01/06 02:21:02;;;;;;;;;;;21.40;51.90;;;;;;5048324;28;19918;-70
2022/01/06 02:23:27;;;;;;;;;;;21.40;52.00;;;;;;5044450;28;20023;-69
2022/01/06 02:25:53;;;;;;;;;;;21.40;52.00;;;;;;5047256;28;19908;-65
2022/01/06 02:28:19;;;;;;;;;;;21.40;52.10;;;;;;5044144;28;19916;-65
2022/01/06 02:30:49;;;;;;;;;;;21.40;52.10;;;;;;5041595;28;20380;-67
2022/01/06 02:33:15;;;;;;;;;;;21.30;52.10;;;;;;5046169;28;20023;-70
2022/01/06 02:35:41;;;;;;;;;;;21.30;52.10;;;;;;5046466;28;20011;-66
2022/01/06 02:38:08;;;;;;;;;;;21.30;52.10;;;;;;5045182;28;19905;-67
2022/01/06 02:40:33;;;;;;;;;;;21.30;52.10;;;;;;5045194;28;19920;-70
2022/01/06 02:42:59;;;;;;;;;;;21.30;52.10;;;;;;5044447;28;19909;-67
2022/01/06 02:45:26;;;;;;;;;;;21.30;52.10;;;;;;5045885;28;19909;-70
2022/01/06 02:47:52;;;;;;;;;;;21.30;52.20;;;;;;5047406;28;19916;-66
2022/01/06 02:50:17;;;;;;;;;;;21.20;52.10;;;;;;5046500;28;20307;-67
2022/01/06 02:52:43;;;;;;;;;;;21.30;52.20;;;;;;5041919;28;19916;-66
2022/01/06 02:55:10;;;;;;;;;;;21.20;52.10;;;;;;5043264;28;20016;-65
2022/01/06 02:57:36;;;;;;;;;;;21.20;52.10;;;;;;5047546;28;19957;-67
2022/01/06 03:00:03;;;;;;;;;;;21.20;52.20;;;;;;5044709;28;20041;-67
2022/01/06 03:02:29;;;;;;;;;;;21.20;52.20;;;;;;5042048;28;19942;-67
2022/01/06 03:04:54;;;;;;;;;;;21.20;52.20;;;;;;5046626;28;20008;-67
2022/01/06 03:07:20;;;;;;;;;;;21.10;52.20;;;;;;5045831;28;19981;-67
2022/01/06 03:09:53;;;;;;;;;;;21.20;52.20;;;;;;5045377;28;20327;-66
2022/01/06 03:12:33;;;;;;;;;;;21.20;52.20;;;;;;5046948;28;19971;-66
2022/01/06 03:14:59;;;;;;;;;;;21.20;52.30;;;;;;5041776;28;19995;-66
2022/01/06 03:17:25;;;;;;;;;;;21.10;52.20;;;;;;5046647;28;19913;-70
2022/01/06 03:19:50;;;;;;;;;;;21.10;52.30;;;;;;5046755;28;19915;-65
2022/01/06 03:22:16;;;;;;;;;;;21.10;52.30;;;;;;5045349;28;20265;-66
2022/01/06 03:24:42;;;;;;;;;;;21.10;52.30;;;;;;5044466;28;19960;-67
2022/01/06 03:27:07;;;;;;;;;;;21.00;52.30;;;;;;5042677;28;20319;-66
2022/01/06 03:29:33;;;;;;;;;;;21.10;52.40;;;;;;5044469;28;20054;-67
2022/01/06 03:31:59;;;;;;;;;;;21.00;52.30;;;;;;5042351;28;19917;-65
2022/01/06 03:34:30;;;;;;;;;;;21.00;52.30;;;;;;5046082;28;20571;-66
2022/01/06 03:36:56;;;;;;;;;;;21.00;52.30;;;;;;5042756;28;19992;-69
2022/01/06 03:39:22;;;;;;;;;;;21.00;52.40;;;;;;5045808;28;20352;-65
2022/01/06 03:41:47;;;;;;;;;;;21.00;52.40;;;;;;5043992;28;19912;-69
2022/01/06 03:44:12;;;;;;;;;;;21.00;52.40;;;;;;5045993;28;21007;-65
2022/01/06 03:46:38;;;;;;;;;;;21.00;52.40;;;;;;5045886;28;20034;-66
2022/01/06 03:49:04;;;;;;;;;;;21.00;52.50;;;;;;5048091;28;20430;-65
2022/01/06 03:51:30;;;;;;;;;;;21.00;52.50;;;;;;5042738;28;19909;-66
2022/01/06 03:53:55;;;;;;;;;;;21.00;52.50;;;;;;5043908;28;19935;-66
2022/01/06 03:56:21;;;;;;;;;;;21.00;52.50;;;;;;5044598;28;19983;-70
2022/01/06 03:58:48;;;;;;;;;;;21.00;52.50;;;;;;5046249;28;19947;-66
2022/01/06 04:01:14;;;;;;;;;;;20.90;52.40;;;;;;5041820;28;19996;-67
2022/01/06 04:03:40;;;;;;;;;;;20.90;52.50;;;;;;5045464;28;19996;-65
2022/01/06 04:06:05;;;;;;;;;;;20.90;52.50;;;;;;5043884;28;19909;-66
2022/01/06 04:08:31;;;;;;;;;;;20.90;52.50;;;;;;5043673;28;19963;-66
2022/01/06 04:10:56;;;;;;;;;;;20.90;52.50;;;;;;5044748;28;19909;-70
2022/01/06 04:13:23;;;;;;;;;;;20.90;52.50;;;;;;5045182;28;19914;-66
2022/01/06 04:15:49;;;;;;;;;;;20.90;52.60;;;;;;5045452;28;20277;-66
2022/01/06 04:18:14;;;;;;;;;;;20.90;52.60;;;;;;5044729;28;20003;-69
2022/01/06 04:20:40;;;;;;;;;;;20.90;52.60;;;;;;5043969;28;20116;-67
2022/01/06 04:23:05;;;;;;;;;;;20.80;52.60;;;;;;5044027;28;19943;-67
2022/01/06 04:25:31;;;;;;;;;;;20.80;52.60;;;;;;5042224;28;20020;-66
2022/01/06 04:27:56;;;;;;;;;;;20.80;52.60;;;;;;5046081;28;19912;-70
2022/01/06 04:30:22;;;;;;;;;;;20.80;52.60;;;;;;5042387;28;20421;-67
2022/01/06 04:32:47;;;;;;;;;;;20.80;52.70;;;;;;5039557;28;19912;-66
2022/01/06 04:35:13;;;;;;;;;;;20.80;52.70;;;;;;5041596;28;20004;-66
2022/01/06 04:37:38;;;;;;;;;;;20.80;52.70;;;;;;5044876;28;19931;-70
2022/01/06 04:40:05;;;;;;;;;;;20.80;52.70;;;;;;5040936;28;19909;-70
2022/01/06 04:42:30;;;;;;;;;;;20.80;52.80;;;;;;5044403;28;20058;-66
2022/01/06 04:44:56;;;;;;;;;;;20.80;52.80;;;;;;5043823;28;20057;-67
2022/01/06 04:47:21;;;;;;;;;;;20.80;52.80;;;;;;5041976;28;19920;-65
2022/01/06 04:49:47;;;;;;;;;;;20.80;52.80;;;;;;5044443;28;19916;-66
2022/01/06 04:52:12;;;;;;;;;;;20.70;52.70;;;;;;5043459;28;20447;-66
2022/01/06 04:54:38;;;;;;;;;;;20.70;52.80;;;;;;5043479;28;20017;-66
2022/01/06 04:57:03;;;;;;;;;;;20.70;52.80;;;;;;5047240;28;20296;-66
2022/01/06 04:59:29;;;;;;;;;;;20.70;52.80;;;;;;5049082;28;19919;-68
2022/01/06 05:01:54;;;;;;;;;;;20.70;52.80;;;;;;5047787;28;20384;-67
2022/01/06 05:04:20;;;;;;;;;;;20.70;52.90;;;;;;5040879;28;19920;-69
2022/01/06 05:06:45;;;;;;;;;;;20.70;52.90;;;;;;5045644;28;19944;-70
2022/01/06 05:09:11;;;;;;;;;;;20.70;52.90;;;;;;5047866;28;19916;-65
2022/01/06 05:11:36;;;;;;;;;;;20.70;52.90;;;;;;5047610;28;19959;-65
2022/01/06 05:14:02;;;;;;;;;;;20.70;52.90;;;;;;5043470;28;19912;-65
2022/01/06 05:16:27;;;;;;;;;;;20.70;53.00;;;;;;5050316;28;19909;-65
2022/01/06 05:18:53;;;;;;;;;;;20.70;52.90;;;;;;5047772;28;19916;-67
2022/01/06 05:21:18;;;;;;;;;;;20.70;53.00;;;;;;5047411;28;19947;-67
2022/01/06 05:23:44;;;;;;;;;;;20.70;53.00;;;;;;5047202;28;20459;-66
2022/01/06 05:26:10;;;;;;;;;;;20.60;53.00;;;;;;5046617;28;19913;-70
2022/01/06 05:28:35;;;;;;;;;;;20.60;53.00;;;;;;5048161;28;20046;-67
2022/01/06 05:31:01;;;;;;;;;;;20.70;53.00;;;;;;5048203;28;20298;-65
2022/01/06 05:33:26;;;;;;;;;;;20.70;53.10;;;;;;5047150;28;19908;-66
2022/01/06 05:35:52;;;;;;;;;;;20.60;53.10;;;;;;5044031;28;20268;-67
2022/01/06 05:38:18;;;;;;;;;;;20.60;53.10;;;;;;5046897;28;19995;-69
2022/01/06 05:40:44;;;;;;;;;;;20.60;53.10;;;;;;5047990;28;20007;-67
2022/01/06 05:43:09;;;;;;;;;;;20.60;53.10;;;;;;5049233;28;19948;-65
2022/01/06 05:45:34;;;;;;;;;;;20.60;53.10;;;;;;5047537;28;19962;-66
2022/01/06 05:48:00;;;;;;;;;;;20.60;53.10;;;;;;5048421;28;19921;-66
2022/01/06 05:50:27;;;;;;;;;;;20.60;53.10;;;;;;5046119;28;20000;-65
2022/01/06 05:52:54;;;;;;;;;;;20.60;53.10;;;;;;5042023;28;19968;-70
2022/01/06 05:55:23;;;;;;;;;;;20.60;53.20;;;;;;5046114;28;19909;-66
2022/01/06 05:57:50;;;;;;;;;;;20.60;53.20;;;;;;5045318;28;20360;-65
2022/01/06 06:00:16;;;;;;;;;;;20.60;53.20;;;;;;5045074;28;19913;-70
2022/01/06 06:02:44;;;;;;;;;;;20.50;53.10;;;;;;5046368;28;19930;-66
2022/01/06 06:05:10;;;;;;;;;;;20.50;53.20;;;;;;5047822;28;20315;-66
2022/01/06 06:07:35;;;;;;;;;;;20.50;53.20;;;;;;5042564;28;19920;-67
2022/01/06 06:10:01;;;;;;;;;;;20.50;53.20;;;;;;5041429;28;20340;-67
2022/01/06 06:12:26;;;;;;;;;;;20.50;53.20;;;;;;5047870;28;19915;-70
2022/01/06 06:14:52;;;;;;;;;;;20.50;53.20;;;;;;5046822;28;20648;-67
2022/01/06 06:17:17;;;;;;;;;;;20.50;53.20;;;;;;5044930;28;19924;-66
2022/01/06 06:19:43;;;;;;;;;;;20.50;53.20;;;;;;5042316;28;19919;-67
2022/01/06 06:22:10;;;;;;;;;;;20.50;53.30;;;;;;5044612;28;19970;-65
2022/01/06 06:24:36;;;;;;;;;;;20.50;53.20;;;;;;5047185;28;19928;-67
2022/01/06 06:27:03;;;;;;;;;;;20.50;53.30;;;;;;5048008;28;20003;-67
2022/01/06 06:29:29;;;;;;;;;;;20.50;53.30;;;;;;5041507;28;19935;-66
2022/01/06 06:31:55;;;;;;;;;;;20.50;53.30;;;;;;5047558;28;19938;-66
2022/01/06 06:34:20;;;;;;;;;;;20.50;53.30;;;;;;5044767;28;19960;-70
2022/01/06 06:36:46;;;;;;;;;;;20.50;53.30;;;;;;5041355;28;19913;-66
2022/01/06 06:39:11;;;;;;;;;;;20.50;53.30;;;;;;5040897;28;19919;-66
2022/01/06 06:41:37;;;;;;;;;;;20.50;53.30;;;;;;5046597;28;19916;-66
2022/01/06 06:44:03;;;;;;;;;;;20.50;53.30;;;;;;5048675;28;19908;-70
2022/01/06 06:46:28;;;;;;;;;;;20.50;53.40;;;;;;5043674;28;20103;-67
2022/01/06 06:48:54;;;;;;;;;;;20.50;53.40;;;;;;5046734;28;20403;-67
2022/01/06 06:51:19;;;;;;;;;;;20.50;53.30;;;;;;5042954;28;19908;-67
2022/01/06 06:53:45;;;;;;;;;;;20.40;53.30;;;;;;5046233;28;19908;-67
2022/01/06 06:56:10;;;;;;;;;;;20.40;53.40;;;;;;5045217;28;19952;-66
2022/01/06 06:58:36;;;;;;;;;;;20.40;53.40;;;;;;5045876;28;19947;-66
2022/01/06 07:01:02;;;;;;;;;;;20.40;53.40;;;;;;5044818;28;20011;-65
2022/01/06 07:03:27;;;;;;;;;;;20.40;53.40;;;;;;5048436;28;19908;-70
2022/01/06 07:05:52;;;;;;;;;;;20.40;53.40;;;;;;5046660;28;19916;-67
2022/01/06 07:08:18;;;;;;;;;;;20.40;53.40;;;;;;5044937;28;19915;-67
2022/01/06 07:10:43;;;;;;;;;;;20.40;53.40;;;;;;5041669;28;20355;-67
2022/01/06 07:13:09;;;;;;;;;;;20.40;53.40;;;;;;5042606;28;20007;-65
2022/01/06 07:15:38;;;;;;;;;;;20.40;53.50;;;;;;5047701;28;19909;-67
2022/01/06 07:18:03;;;;;;;;;;;20.40;53.50;;;;;;5044145;28;19923;-66
2022/01/06 07:20:29;;;;;;;;;;;20.40;53.50;;;;;;5046051;28;20241;-70
2022/01/06 07:22:54;;;;;;;;;;;20.40;53.50;;;;;;5044371;28;19913;-66
2022/01/06 07:25:21;;;;;;;;;;;20.40;53.50;;;;;;5042537;28;20279;-65
2022/01/06 07:27:47;;;;;;;;;;;20.30;53.50;;;;;;5045762;28;19908;-66
2022/01/06 07:30:12;;;;;;;;;;;20.30;53.50;;;;;;5044968;28;19978;-66
2022/01/06 07:32:41;;;;;;;;;;;20.30;53.50;;;;;;5044655;28;20169;-70
2022/01/06 07:35:07;;;;;;;;;;;20.30;53.50;;;;;;5047376;28;19917;-67
2022/01/06 07:37:33;;;;;;;;;;;20.30;53.60;;;;;;5042783;28;20331;-65
2022/01/06 07:39:58;;;;;;;;;;;20.30;53.60;;;;;;5043617;28;19909;-67
2022/01/06 07:42:24;;;;;;;;;;;20.30;53.60;;;;;;5043933;28;19971;-67
2022/01/06 07:44:49;;;;;;;;;;;20.30;53.70;;;;;;5046016;28;19912;-67
2022/01/06 07:47:15;;;;;;;;;;;20.30;53.70;;;;;;5042165;28;19932;-69
2022/01/06 07:49:41;;;;;;;;;;;20.30;53.70;;;;;;5046307;28;19917;-66
2022/01/06 07:52:06;;;;;;;;;;;20.30;53.70;;;;;;5040359;28;19935;-70
2022/01/06 07:54:32;;;;;;;;;;;20.30;53.70;;;;;;5034998;28;20377;-67
2022/01/06 07:56:57;;;;;;;;;;;20.30;53.70;;;;;;5047176;28;19912;-70
2022/01/06 07:59:23;;;;;;;;;;;20.30;53.70;;;;;;5047482;28;19924;-66
2022/01/06 08:01:48;;;;;;;;;;;20.30;53.70;;;;;;5045009;28;20388;-66
2022/01/06 08:04:14;;;;;;;;;;;20.30;53.80;;;;;;5044917;28;19917;-69
2022/01/06 08:06:39;;;;;;;;;;;20.30;53.80;;;;;;5040707;28;20446;-70
2022/01/06 08:09:05;;;;;;;;;;;20.30;53.80;;;;;;5045640;28;19959;-67
2022/01/06 08:11:30;;;;;;;;;;;20.20;53.80;;;;;;5044455;28;19955;-66
2022/01/06 08:13:56;;;;;;;;;;;20.20;53.80;;;;;;5046175;28;19908;-67
2022/01/06 08:16:21;;;;;;;;;;;20.30;53.80;;;;;;5047420;28;20210;-67
2022/01/06 08:18:47;;;;;;;;;;;20.20;53.80;;;;;;5046981;28;19951;-69
2022/01/06 08:21:12;;;;;;;;;;;20.20;53.80;;;;;;5042960;28;19913;-68
2022/01/06 08:23:38;;;;;;;;;;;20.20;53.80;;;;;;5042600;28;20625;-67
2022/01/06 08:26:03;;;;;;;;;;;20.20;53.80;;;;;;5045761;28;19982;-66
2022/01/06 08:28:29;;;;;;;;;;;20.20;53.90;;;;;;5038366;28;19955;-67
2022/01/06 08:30:54;;;;;;;;;;;20.20;53.80;;;;;;5037774;28;20535;-67
2022/01/06 08:33:20;;;;;;;;;;;20.20;53.90;;;;;;5041510;28;19928;-65
2022/01/06 08:35:45;;;;;;;;;;;20.20;53.90;;;;;;5045097;28;19913;-70
2022/01/06 08:38:11;;;;;;;;;;;20.20;53.90;;;;;;5043752;28;19916;-67
2022/01/06 08:40:37;;;;;;;;;;;20.20;53.90;;;;;;5042810;28;19912;-66
2022/01/06 08:43:02;;;;;;;;;;;20.20;53.90;;;;;;5045390;28;19905;-67
2022/01/06 08:45:28;;;;;;;;;;;20.20;53.90;;;;;;5042238;28;20034;-67
2022/01/06 08:47:55;;;;;;;;;;;20.10;53.90;;;;;;5039275;28;19923;-69
2022/01/06 08:50:21;;;;;;;;;;;20.20;54.00;;;;;;5039803;28;20293;-66
2022/01/06 08:52:46;;;;;;;;;;;20.10;53.90;;;;;;5043853;28;19919;-66
2022/01/06 08:55:12;;;;;;;;;;;20.10;53.90;;;;;;5041123;28;19909;-69
2022/01/06 08:57:38;;;;;;;;;;;20.20;54.00;;;;;;5042467;28;20671;-66
2022/01/06 09:00:05;;;;;;;;;;;20.10;54.00;;;;;;5041805;28;20007;-70
2022/01/06 09:02:30;;;;;;;;;;;20.10;53.90;;;;;;5042205;28;20035;-69
2022/01/06 09:04:59;;;;;;;;;;;20.10;54.00;;;;;;5042305;28;20004;-65
2022/01/06 09:07:25;;;;;;;;;;;20.10;54.00;;;;;;5042622;28;19970;-65
2022/01/06 09:09:50;;;;;;;;;;;20.10;54.00;;;;;;5039195;28;19909;-65
2022/01/06 09:12:19;;;;;;;;;;;20.10;54.00;;;;;;5044342;28;20335;-65
2022/01/06 09:14:45;;;;;;;;;;;20.10;54.00;;;;;;5044023;28;20007;-70
2022/01/06 09:17:11;;;;;;;;;;;20.10;54.00;;;;;;5041536;28;19960;-69
2022/01/06 09:19:36;;;;;;;;;;;20.10;54.00;;;;;;5046372;28;19948;-64
2022/01/06 09:22:02;;;;;;;;;;;20.10;54.00;;;;;;5043220;28;19917;-70
2022/01/06 09:24:28;;;;;;;;;;;20.10;54.00;;;;;;5041474;28;20023;-67
2022/01/06 09:26:54;;;;;;;;;;;20.10;54.00;;;;;;5039153;28;19924;-68
2022/01/06 09:29:19;;;;;;;;;;;20.10;54.00;;;;;;5041455;28;20524;-67
2022/01/06 09:31:45;;;;;;;;;;;20.10;54.00;;;;;;5042387;28;20411;-68
2022/01/06 09:34:13;;;;;;;;;;;20.10;54.00;;;;;;5040000;28;19963;-67
2022/01/06 09:36:39;;;;;;;;;;;20.00;53.90;;;;;;5036467;28;20367;-68
2022/01/06 09:39:06;;;;;;;;;;;20.10;54.00;;;;;;5040560;28;19916;-65
2022/01/06 09:41:32;;;;;;;;;;;20.00;53.90;;;;;;5037982;28;20304;-66
2022/01/06 09:44:00;;;;;;;;;;;20.00;54.00;;;;;;5045237;28;19913;-68
2022/01/06 09:46:27;;;;;;;;;;;20.00;53.90;;;;;;5042561;28;20303;-66
2022/01/06 09:48:57;;;;;;;;;;;20.00;53.90;;;;;;5044072;28;19913;-67
2022/01/06 09:51:22;;;;;;;;;;;20.00;53.90;;;;;;5042183;28;20598;-69
2022/01/06 09:53:48;;;;;;;;;;;20.00;54.00;;;;;;5036056;28;19917;-68
2022/01/06 09:56:14;;;;;;;;;;;20.00;54.00;;;;;;5044917;28;19917;-67
2022/01/06 09:58:40;;;;;;;;;;;20.00;54.00;;;;;;5046270;28;20341;-63
2022/01/06 10:01:05;;;;;;;;;;;20.00;54.00;;;;;;5041879;28;19983;-63
2022/01/06 10:03:32;;;;;;;;;;;20.00;54.00;;;;;;5042378;28;20483;-68
2022/01/06 10:06:07;;;;;;;;;;;20.00;54.00;;;;;;5043438;28;19913;-67
2022/01/06 10:08:33;;;;;;;;;;;20.00;54.10;;;;;;5053896;28;19913;-67
2022/01/06 10:11:28;;;;;;;;;;;20.00;54.10;;;;;;5037461;28;20284;-68
2022/01/06 10:13:56;;;;;;;;;;;20.00;54.20;;;;;;5017850;28;19923;-67
2022/01/06 10:16:25;;;;;;;;;;;20.00;54.70;;;;;;5044879;28;19912;-67
2022/01/06 10:18:59;;;;;;;;;;;20.00;54.20;;;;;;5043409;28;19979;-67
2022/01/06 10:21:25;;;;;;;;;;;20.00;54.20;;;;;;5042532;28;20333;-63
2022/01/06 10:23:57;;;;;;;;;;;20.00;54.20;;;;;;5044108;28;19913;-68
2022/01/06 10:26:23;;;;;;;;;;;20.00;54.20;;;;;;5039270;28;19912;-67
2022/01/06 10:28:50;;;;;;;;;;;20.00;54.30;;;;;;5040283;28;20246;-66
2022/01/06 10:31:18;;;;;;;;;;;20.00;54.20;;;;;;5040752;28;19945;-68
2022/01/06 10:33:43;;;;;;;;;;;20.00;54.30;;;;;;5039261;28;19924;-64
2022/01/06 10:36:09;;;;;;;;;;;20.00;54.30;;;;;;5045035;28;20026;-67
2022/01/06 10:38:36;;;;;;;;;;;20.00;54.30;;;;;;5041312;28;20067;-67
2022/01/06 10:41:08;;;;;;;;;;;20.00;54.40;;;;;;5039297;28;20225;-67
2022/01/06 10:43:34;;;;;;;;;;;20.00;54.40;;;;;;5042105;28;19917;-68
2022/01/06 10:46:01;;;;;;;;;;;20.00;54.40;;;;;;5042242;28;19913;-64
2022/01/06 10:48:26;;;;;;;;;;;20.00;54.50;;;;;;5040233;28;20008;-68
2022/01/06 10:50:56;;;;;;;;;;;20.00;54.40;;;;;;5045723;28;19939;-64
2022/01/06 10:53:21;;;;;;;;;;;20.00;54.50;;;;;;5043176;28;19913;-68
2022/01/06 10:55:47;;;;;;;;;;;20.00;54.50;;;;;;5042290;28;19931;-68
2022/01/06 10:58:16;;;;;;;;;;;20.00;54.40;;;;;;5043753;28;19982;-63
2022/01/06 11:00:43;;;;;;;;;;;20.00;54.50;;;;;;5042860;28;19919;-66
2022/01/06 11:03:22;;;;;;;;;;;20.00;54.50;;;;;;5040067;28;19924;-66
2022/01/06 11:05:51;;;;;;;;;;;20.00;54.50;;;;;;5041373;28;19920;-67
2022/01/06 11:08:21;;;;;;;;;;;20.00;54.50;;;;;;5039783;28;19959;-65
2022/01/06 11:10:50;;;;;;;;;;;20.00;54.50;;;;;;5041084;28;19909;-69
2022/01/06 11:13:17;;;;;;;;;;;20.00;54.50;;;;;;5041189;28;19924;-68
2022/01/06 11:15:43;;;;;;;;;;;20.00;54.50;;;;;;5041925;28;20356;-67
2022/01/06 11:18:09;;;;;;;;;;;20.00;54.50;;;;;;5041128;28;19974;-68
2022/01/06 11:20:35;;;;;;;;;;;20.00;54.50;;;;;;5038860;28;19923;-68
2022/01/06 11:23:00;;;;;;;;;;;20.00;54.50;;;;;;5041518;28;19914;-68
2022/01/06 11:25:37;;;;;;;;;;;20.00;54.50;;;;;;5043894;28;19904;-67
2022/01/06 11:28:06;;;;;;;;;;;20.00;54.50;;;;;;5041523;28;19917;-66
2022/01/06 11:30:42;;;;;;;;;;;20.00;54.50;;;;;;5039307;28;19970;-63
2022/01/06 11:33:08;;;;;;;;;;;20.00;54.60;;;;;;5042539;28;19936;-68
2022/01/06 11:35:52;;;;;;;;;;;19.90;54.50;;;;;;5042273;28;20403;-65
2022/01/06 11:38:19;;;;;;;;;;;20.00;54.50;;;;;;5040598;28;19942;-68
2022/01/06 11:40:46;;;;;;;;;;;20.00;54.60;;;;;;5042423;28;19908;-67
2022/01/06 11:43:12;;;;;;;;;;;20.00;54.60;;;;;;5038667;28;19905;-65
2022/01/06 11:45:37;;;;;;;;;;;20.00;54.70;;;;;;5041060;28;19909;-69
2022/01/06 11:48:05;;;;;;;;;;;20.00;54.60;;;;;;5038583;28;19912;-68
2022/01/06 11:50:38;;;;;;;;;;;19.90;54.60;;;;;;5040493;28;19909;-67
2022/01/06 11:53:04;;;;;;;;;;;20.00;54.70;;;;;;5041064;28;20461;-67
2022/01/06 11:55:37;;;;;;;;;;;19.90;54.70;;;;;;5042302;28;19913;-67
2022/01/06 11:58:10;;;;;;;;;;;20.00;54.80;;;;;;5043465;28;19919;-66
2022/01/06 12:00:37;;;;;;;;;;;20.00;54.80;;;;;;5037886;28;19920;-67
2022/01/06 12:03:07;;;;;;;;;;;20.00;54.90;;;;;;5044499;28;20367;-68
2022/01/06 12:05:41;;;;;;;;;;;20.00;54.90;;;;;;5036646;28;21048;-68
2022/01/06 12:08:07;;;;;;;;;;;20.00;55.00;;;;;;5038735;28;19917;-64
2022/01/06 12:10:39;;;;;;;;;;;19.90;54.90;;;;;;5039135;28;19913;-69
2022/01/06 12:13:05;;;;;;;;;;;20.00;55.00;;;;;;5031053;28;20412;-67
2022/01/06 12:15:30;;;;;;;;;;;20.00;55.10;;;;;;5036540;28;19920;-67
2022/01/06 12:17:56;;;;;;;;;;;20.00;55.10;;;;;;5034036;28;20387;-65
2022/01/06 12:20:26;;;;;;;;;;;19.90;55.10;;;;;;5027647;28;19964;-64
2022/01/06 12:22:54;;;;;;;;;;;20.00;55.30;;;;;;5032360;28;19916;-67
2022/01/06 12:25:23;;;;;;;;;;;20.00;55.70;;;;;;5029020;28;20414;-67
2022/01/06 12:27:52;;;;;;;;;;;20.00;55.70;;;;;;5033805;28;20059;-64
2022/01/06 12:30:19;;;;;;;;;;;20.00;55.90;;;;;;5031492;28;20329;-68
2022/01/06 12:32:59;;;;;;;;;;;20.10;55.80;;;;;;5031015;28;20281;-67
2022/01/06 12:35:42;;;;;;;;;;;20.10;55.60;;;;;;5030781;28;19917;-67
2022/01/06 12:38:08;;;;;;;;;;;20.20;55.40;;;;;;5033169;28;20362;-67
2022/01/06 12:40:35;;;;;;;;;;;20.30;55.40;;;;;;5029894;28;20003;-68
2022/01/06 12:43:12;;;;;;;;;;;20.30;55.20;;;;;;5032417;28;19916;-69
2022/01/06 12:45:37;;;;;;;;;;;20.30;55.10;;;;;;5029697;28;19912;-68
2022/01/06 12:48:03;;;;;;;;;;;20.30;55.00;;;;;;5033736;28;19925;-69
2022/01/06 12:50:28;;;;;;;;;;;20.40;55.00;;;;;;5031389;28;19921;-68
2022/01/06 12:52:54;;;;;;;;;;;20.40;54.90;;;;;;5032240;28;20328;-69
2022/01/06 12:55:19;;;;;;;;;;;20.40;55.10;;;;;;5031562;28;19913;-68
2022/01/06 12:57:49;;;;;;;;;;;20.50;55.40;;;;;;5030622;28;19924;-65
2022/01/06 13:00:15;;;;;;;;;;;20.50;55.30;;;;;;5029509;28;19997;-68
2022/01/06 13:02:41;;;;;;;;;;;20.50;55.10;;;;;;5032711;28;20015;-69
2022/01/06 13:05:06;;;;;;;;;;;20.50;54.90;;;;;;5030163;28;19925;-67
2022/01/06 13:07:32;;;;;;;;;;;20.60;54.80;;;;;;5044285;28;19923;-67
2022/01/06 13:09:58;;;;;;;;;;;20.60;54.70;;;;;;5034008;28;19940;-66
2022/01/06 13:12:24;;;;;;;;;;;20.60;54.70;;;;;;5030344;28;19986;-67
2022/01/06 13:14:54;;;;;;;;;;;20.60;54.60;;;;;;5034321;28;20700;-66
2022/01/06 13:17:24;;;;;;;;;;;20.60;54.60;;;;;;5031744;28;19934;-67
2022/01/06 13:20:08;;;;;;;;;;;20.70;54.50;;;;;;5036215;28;19923;-65
2022/01/06 13:25:25;;;;;;;;;;;20.70;54.40;;;;;;5032374;28;19916;-66
2022/01/06 13:27:56;;;;;;;;;;;20.70;54.40;;;;;;5032717;28;19916;-67
2022/01/06 13:30:29;;;;;;;;;;;20.70;54.30;;;;;;5038787;28;19917;-64
2022/01/06 13:32:55;;;;;;;;;;;20.70;54.30;;;;;;5039027;28;19923;-64
2022/01/06 13:35:21;;;;;;;;;;;20.70;54.20;;;;;;5039745;28;19913;-66
2022/01/06 13:37:46;;;;;;;;;;;20.70;54.20;;;;;;5034234;28;20503;-67
2022/01/06 13:40:12;;;;;;;;;;;20.80;54.20;;;;;;5039796;28;19913;-66
2022/01/06 13:42:39;;;;;;;;;;;20.80;54.20;;;;;;5040832;28;19931;-65
2022/01/06 13:45:50;;;;;;;;;;;20.80;54.20;;;;;;5036770;28;19990;-67
2022/01/06 13:48:19;;;;;;;;;;;20.80;54.10;;;;;;5029464;28;19992;-67
2022/01/06 13:53:30;;;;;;;;;;;20.80;54.00;;;;;;5034735;28;20330;-67
2022/01/06 13:55:58;;;;;;;;;;;20.90;54.10;;;;;;5037705;28;19982;-64
2022/01/06 13:58:24;;;;;;;;;;;20.90;54.00;;;;;;5038635;28;19951;-65
2022/01/06 14:00:50;;;;;;;;;;;20.90;54.00;;;;;;5034528;28;20015;-67
2022/01/06 14:03:16;;;;;;;;;;;20.90;53.90;;;;;;5039993;28;20011;-66
2022/01/06 14:05:42;;;;;;;;;;;20.90;53.80;;;;;;5037639;28;20049;-66
2022/01/06 14:08:07;;;;;;;;;;;21.00;53.80;;;;;;5031765;28;19924;-66
2022/01/06 14:10:33;;;;;;;;;;;21.00;53.80;;;;;;5036744;28;19955;-66
2022/01/06 14:12:58;;;;;;;;;;;21.00;53.90;;;;;;5035639;28;19912;-66
2022/01/06 14:15:24;;;;;;;;;;;21.10;53.70;;;;;;5031510;28;19923;-67
2022/01/06 14:17:49;;;;;;;;;;;21.00;53.80;;;;;;5034203;28;20407;-68
2022/01/06 14:20:15;;;;;;;;;;;21.10;53.80;;;;;;5033639;28;19966;-67
2022/01/06 14:22:40;;;;;;;;;;;21.10;53.80;;;;;;5032416;28;19931;-66
2022/01/06 14:25:06;;;;;;;;;;;21.10;53.70;;;;;;5032994;28;19963;-67